METAR Data
IDs: Format: Raw Decoded Include TAF

Data at: 2132 UTC 20 Nov 2018

KJWY 202115Z AUTO 03004KT 10SM CLR 14/00 A3033 RMK AO2 T01390001
KJWY 202055Z AUTO 03006KT 10SM CLR 14/00 A3033 RMK AO2 6//// T01400001
KJWY 202035Z AUTO 04005KT 10SM CLR 14/00 A3034 RMK AO2 T01410003
KJWY 202015Z AUTO 36005KT 10SM CLR 14/00 A3034 RMK AO2 T01410002
KJWY 201955Z AUTO 04006KT 10SM CLR 14/01 A3035 RMK AO2 T01400005
KJWY 201935Z AUTO 05007KT 10SM CLR 14/00 A3035 RMK AO2 T01400003
KJWY 201915Z AUTO 05009KT 10SM CLR 14/00 A3035 RMK AO2 T01380002
KJWY 201855Z AUTO 04008KT 10SM CLR 14/00 A3036 RMK AO2 T01350001
KJWY 201835Z AUTO 07010G15KT 10SM CLR 14/00 A3037 RMK AO2 T01350003
KJWY 201815Z AUTO 06008KT 030V100 10SM CLR 13/00 A3039 RMK AO2 T01310000
KJWY 201755Z AUTO 06007KT 10SM CLR 13/00 A3040 RMK AO2 T01311001 10131 20018
KJWY 201735Z AUTO 05006KT 10SM CLR 13/00 A3040 RMK AO2 T01270004
KJWY 201715Z AUTO 05010KT 10SM CLR 12/00 A3042 RMK AO2 T01170000
KJWY 201655Z AUTO 03009KT 10SM CLR 11/01 A3042 RMK AO2 T01120007
KJWY 201635Z AUTO 03010KT 10SM CLR 11/01 A3042 RMK AO2 T01060008
KJWY 201615Z AUTO 05007KT 10SM CLR 10/02 A3042 RMK AO2 T01020017
KJWY 201555Z AUTO 04009KT 10SM CLR 10/01 A3041 RMK AO2 T00950013
KJWY 201535Z AUTO 03005KT 10SM CLR 09/02 A3041 RMK AO2 T00880017
KJWY 201515Z AUTO 03007KT 10SM CLR 08/02 A3041 RMK AO2 T00800021
KJWY 201455Z AUTO 01006KT 10SM CLR 07/02 A3040 RMK AO2 T00690020
KJWY 201435Z AUTO 36005KT 10SM CLR 06/02 A3040 RMK AO2 T00610020
KJWY 201415Z AUTO 35007KT 10SM CLR 05/02 A3038 RMK AO2 T00510024
KJWY 201355Z AUTO 34003KT 10SM CLR 04/02 A3038 RMK AO2 T00350022
KJWY 201335Z AUTO 33003KT 10SM CLR 02/02 A3037 RMK AO2 T00230016
KJWY 201315Z AUTO 00000KT 10SM CLR 02/01 A3037 RMK AO2 T00210013
KJWY 201255Z AUTO 34005KT 10SM CLR 02/02 A3035 RMK AO2 T00200015
KJWY 201235Z AUTO 35006KT 10SM CLR 02/02 A3034 RMK AO2 T00210018
KJWY 201215Z AUTO 35006KT 10SM CLR 03/02 A3034 RMK AO2 T00250020
KJWY 201155Z AUTO 35006KT 10SM CLR 03/02 A3033 RMK AO2 T00250022 10046 20011
KJWY 201135Z AUTO 34006KT 10SM CLR 02/02 A3032 RMK AO2 T00210021
KJWY 201115Z AUTO 32004KT 7SM CLR 01/01 A3032 RMK AO2 T00140014
KJWY 201055Z AUTO 29003KT 7SM CLR 01/01 A3032 RMK AO2 T00130013
KJWY 201035Z AUTO 30003KT 10SM CLR 02/02 A3032 RMK AO2 T00150015
KJWY 201015Z AUTO 29004KT 7SM CLR 02/02 A3031 RMK AO2 T00160016
KJWY 200955Z AUTO 30003KT 10SM CLR 02/02 A3031 RMK AO2 T00170017
KJWY 200935Z AUTO 00000KT 7SM CLR 02/02 A3031 RMK AO2 T00160016
KJWY 200915Z AUTO 00000KT 10SM CLR 02/01 A3030 RMK AO2 T00200011
KJWY 200855Z AUTO 00000KT 10SM CLR 03/02 A3030 RMK AO2 T00280017
KJWY 200835Z AUTO 00000KT 10SM CLR 02/01 A3030 RMK AO2 T00180009
KJWY 200815Z AUTO 00000KT 10SM CLR 02/01 A3030 RMK AO2 T00200007
KJWY 200755Z AUTO 00000KT 10SM CLR 02/01 A3030 RMK AO2 T00180005
KJWY 200735Z AUTO 00000KT 10SM CLR 02/01 A3030 RMK AO2 T00210005
KJWY 200715Z AUTO 00000KT 10SM CLR 04/01 A3030 RMK AO2 T00350012
KJWY 200655Z AUTO 00000KT 10SM CLR 04/01 A3029 RMK AO2 T00360012
KJWY 200635Z AUTO 35004KT 10SM CLR 05/02 A3029 RMK AO2 T00450015
KJWY 200620Z AUTO 35004KT 10SM CLR 04/02 A3028 RMK AO2 T00430017
KJWY 200555Z AUTO 35005KT 10SM CLR 05/02 A3028 RMK AO2 T00460017 10088 20040 401250027
KJWY 200535Z AUTO 35004KT 10SM CLR 04/02 A3028 RMK AO2 T00440015
KJWY 200515Z AUTO 35004KT 10SM CLR 05/02 A3028 RMK AO2 T00500017
KJWY 200455Z AUTO 36005KT 10SM CLR 05/02 A3028 RMK AO2 T00500019
KJWY 200435Z AUTO 36005KT 10SM CLR 06/02 A3027 RMK AO2 T00560018
KJWY 200415Z AUTO 36003KT 10SM CLR 05/02 A3027 RMK AO2 T00540020
KJWY 200355Z AUTO 36004KT 10SM CLR 05/02 A3027 RMK AO2 T00530020
KJWY 200335Z AUTO 36004KT 10SM CLR 05/02 A3026 RMK AO2 T00540018
KJWY 200315Z AUTO 35003KT 10SM CLR 05/02 A3026 RMK AO2 T00540020
KJWY 200255Z AUTO 35004KT 10SM CLR 05/02 A3026 RMK AO2 T00460018
KJWY 200235Z AUTO 00000KT 10SM CLR 05/02 A3025 RMK AO2 T00470018
KJWY 200215Z AUTO 00000KT 10SM CLR 05/02 A3025 RMK AO2 T00540020
KJWY 200155Z AUTO 00000KT 10SM CLR 06/02 A3024 RMK AO2 T00630020
KJWY 200135Z AUTO 00000KT 10SM CLR 07/02 A3023 RMK AO2 T00690020
KJWY 200115Z AUTO 00000KT 10SM CLR 07/02 A3023 RMK AO2 T00720022
KJWY 200055Z AUTO 00000KT 10SM CLR 07/02 A3022 RMK AO2 T00710019
KJWY 200035Z AUTO 00000KT 10SM CLR 08/02 A3022 RMK AO2 T00760020
KJWY 200015Z AUTO 00000KT 10SM CLR 08/02 A3021 RMK AO2 T00820021
KJWY 192355Z AUTO 00000KT 10SM CLR 09/02 A3020 RMK AO2 T00890021 10125 20089
KJWY 192335Z AUTO 00000KT 10SM CLR 09/02 A3020 RMK AO2 T00930022
KJWY 192315Z AUTO 36003KT 10SM CLR 10/03 A3019 RMK AO2 T00970027
KJWY 192255Z AUTO 35003KT 10SM CLR 11/02 A3019 RMK AO2 T01070020
KJWY 192235Z AUTO 36003KT 10SM CLR 11/02 A3018 RMK AO2 T01100019
KJWY 192215Z AUTO 32005KT 10SM CLR 11/02 A3018 RMK AO2 T01140020
KJWY 192155Z AUTO 32007KT 10SM CLR 12/02 A3018 RMK AO2 T01160019
KJWY 192135Z AUTO 33007KT 10SM CLR 12/02 A3018 RMK AO2 T01190020
KJWY 192115Z AUTO 33008KT 10SM CLR 12/02 A3018 RMK AO2 T01180020
KJWY 192055Z AUTO 33004KT 7SM CLR 12/02 A3018 RMK AO2 T01200019
KJWY 192035Z AUTO 31005G16KT 10SM CLR 12/02 A3018 RMK AO2 T01220020
KJWY 192015Z AUTO 31007KT 300V360 10SM CLR 12/02 A3018 RMK AO2 T01190024
KJWY 191955Z AUTO 00000KT 10SM CLR 12/02 A3019 RMK AO2 T01150021
KJWY 191935Z AUTO 34003KT 10SM CLR 12/02 A3020 RMK AO2 T01150018
KJWY 191915Z AUTO 01004KT 10SM CLR 11/02 A3020 RMK AO2 T01140023
KJWY 191855Z AUTO 03003KT 10SM CLR 11/02 A3021 RMK AO2 T01080022
KJWY 191835Z AUTO 00000KT 10SM CLR 10/02 A3023 RMK AO2 T00980020
KJWY 191815Z AUTO 35004KT 10SM CLR 10/02 A3024 RMK AO2 T00970018
KJWY 191755Z AUTO 36003KT 10SM SCT034 09/02 A3025 RMK AO2 T00900019 10090 20027
KJWY 191735Z AUTO 35003KT 10SM BKN032 08/02 A3026 RMK AO2 T00810015
KJWY 191715Z AUTO 00000KT 10SM OVC030 08/01 A3027 RMK AO2 T00800013
KJWY 191655Z AUTO 00000KT 10SM OVC030 07/01 A3027 RMK AO2 T00720011
KJWY 191635Z AUTO 33003KT 10SM OVC030 07/01 A3028 RMK AO2 T00670010
KJWY 191615Z AUTO 34003KT 10SM BKN030 OVC046 07/01 A3027 RMK AO2 T00660009
KJWY 191555Z AUTO 32003KT 10SM SCT030 SCT035 BKN044 06/01 A3028 RMK AO2 T00620009
KJWY 191535Z AUTO 00000KT 10SM SCT034 OVC044 05/01 A3028 RMK AO2 T00510006
KJWY 191515Z AUTO 01004KT 10SM BKN032 OVC044 05/01 A3026 RMK AO2 T00470008
KJWY 191455Z AUTO 01003KT 10SM OVC030 04/01 A3027 RMK AO2 T00430006
KJWY 191435Z AUTO 00000KT 10SM OVC028 04/00 A3027 RMK AO2 T00390002
KJWY 191415Z AUTO 00000KT 10SM OVC028 04/00 A3026 RMK AO2 T00360001
KJWY 191355Z AUTO 36004KT 10SM OVC028 03/00 A3025 RMK AO2 T00320000
KJWY 191335Z AUTO 36003KT 10SM OVC031 03/00 A3025 RMK AO2 T00320000
KJWY 191315Z AUTO 35006KT 10SM OVC033 03/00 A3023 RMK AO2 T00300000
KJWY 191255Z AUTO 34004KT 10SM SCT030 OVC037 03/00 A3024 RMK AO2 T00300000
KJWY 191235Z AUTO 00000KT 10SM BKN037 OVC055 03/00 A3024 RMK AO2 T00271001
KJWY 191215Z AUTO 34007KT 10SM OVC037 03/00 A3023 RMK AO2 T00300000
KJWY 191155Z AUTO 35006KT 10SM BKN037 OVC043 03/00 A3023 RMK AO2 T00301002 10037 20027
KJWY 191135Z AUTO 34009KT 10SM BKN038 OVC044 03/00 A3023 RMK AO2 T00301005
KJWY 191115Z AUTO 32008KT 10SM SCT043 OVC050 03/00 A3023 RMK AO2 T00301003
KJWY 191055Z AUTO 34006KT 10SM OVC048 03/00 A3023 RMK AO2 T00311002
KJWY 191035Z AUTO 33004KT 10SM BKN046 BKN060 OVC075 03/00 A3023 RMK AO2 T00301001
KJWY 191015Z AUTO 32004KT 10SM SCT060 BKN075 03/00 A3023 RMK AO2 T00281003
KJWY 190955Z AUTO 32003KT 10SM SCT046 SCT060 BKN075 03/00 A3022 RMK AO2 T00291005
KJWY 190935Z AUTO 31005KT 10SM OVC046 03/00 A3023 RMK AO2 T00331003